sensor_id;sensor_type;location;lat;lon;timestamp;P1;durP1;ratioP1;P2;durP2;ratioP2
48052;SDS011;33824;51.600;5.718;2023-03-14T00:01:30;6.38;;;1.60;;
48052;SDS011;33824;51.600;5.718;2023-03-14T00:03:55;7.60;;;2.30;;
48052;SDS011;33824;51.600;5.718;2023-03-14T00:06:21;6.85;;;1.50;;
48052;SDS011;33824;51.600;5.718;2023-03-14T00:08:48;5.03;;;1.20;;
48052;SDS011;33824;51.600;5.718;2023-03-14T00:11:15;7.30;;;1.65;;
48052;SDS011;33824;51.600;5.718;2023-03-14T00:13:54;4.70;;;1.45;;
48052;SDS011;33824;51.600;5.718;2023-03-14T00:16:19;4.85;;;1.35;;
48052;SDS011;33824;51.600;5.718;2023-03-14T00:18:45;5.38;;;1.23;;
48052;SDS011;33824;51.600;5.718;2023-03-14T00:21:11;8.68;;;1.83;;
48052;SDS011;33824;51.600;5.718;2023-03-14T00:23:38;11.10;;;1.75;;
48052;SDS011;33824;51.600;5.718;2023-03-14T00:26:06;9.88;;;2.00;;
48052;SDS011;33824;51.600;5.718;2023-03-14T00:28:33;6.63;;;1.20;;
48052;SDS011;33824;51.600;5.718;2023-03-14T00:31:01;5.65;;;1.35;;
48052;SDS011;33824;51.600;5.718;2023-03-14T00:33:28;6.13;;;1.30;;
48052;SDS011;33824;51.600;5.718;2023-03-14T00:35:55;11.20;;;1.90;;
48052;SDS011;33824;51.600;5.718;2023-03-14T00:38:29;7.25;;;1.42;;
48052;SDS011;33824;51.600;5.718;2023-03-14T00:40:56;3.72;;;1.35;;
48052;SDS011;33824;51.600;5.718;2023-03-14T00:43:21;8.32;;;1.38;;
48052;SDS011;33824;51.600;5.718;2023-03-14T00:45:50;7.18;;;1.25;;
48052;SDS011;33824;51.600;5.718;2023-03-14T00:48:17;5.10;;;1.00;;
48052;SDS011;33824;51.600;5.718;2023-03-14T00:50:43;6.72;;;1.40;;
48052;SDS011;33824;51.600;5.718;2023-03-14T00:53:09;5.95;;;1.33;;
48052;SDS011;33824;51.600;5.718;2023-03-14T00:55:38;10.50;;;1.30;;
48052;SDS011;33824;51.600;5.718;2023-03-14T00:58:05;11.05;;;1.65;;
48052;SDS011;33824;51.600;5.718;2023-03-14T01:00:31;5.30;;;1.00;;
48052;SDS011;33824;51.600;5.718;2023-03-14T01:02:57;4.78;;;1.00;;
48052;SDS011;33824;51.600;5.718;2023-03-14T01:05:23;6.30;;;1.38;;
48052;SDS011;33824;51.600;5.718;2023-03-14T01:07:50;4.60;;;1.13;;
48052;SDS011;33824;51.600;5.718;2023-03-14T01:10:16;7.25;;;1.30;;
48052;SDS011;33824;51.600;5.718;2023-03-14T01:12:41;5.25;;;1.10;;
48052;SDS011;33824;51.600;5.718;2023-03-14T01:15:07;7.32;;;1.35;;
48052;SDS011;33824;51.600;5.718;2023-03-14T01:17:33;4.93;;;1.25;;
48052;SDS011;33824;51.600;5.718;2023-03-14T01:19:59;6.07;;;2.25;;
48052;SDS011;33824;51.600;5.718;2023-03-14T01:22:25;8.80;;;1.27;;
48052;SDS011;33824;51.600;5.718;2023-03-14T01:24:51;8.63;;;1.85;;
48052;SDS011;33824;51.600;5.718;2023-03-14T01:27:17;6.32;;;1.38;;
48052;SDS011;33824;51.600;5.718;2023-03-14T01:29:42;9.13;;;1.38;;
48052;SDS011;33824;51.600;5.718;2023-03-14T01:32:08;7.45;;;1.75;;
48052;SDS011;33824;51.600;5.718;2023-03-14T01:34:33;9.00;;;1.67;;
48052;SDS011;33824;51.600;5.718;2023-03-14T01:36:59;7.00;;;0.98;;
48052;SDS011;33824;51.600;5.718;2023-03-14T01:39:25;10.57;;;2.38;;
48052;SDS011;33824;51.600;5.718;2023-03-14T01:41:50;6.07;;;0.85;;
48052;SDS011;33824;51.600;5.718;2023-03-14T01:44:16;5.45;;;1.27;;
48052;SDS011;33824;51.600;5.718;2023-03-14T01:46:42;9.40;;;1.50;;
48052;SDS011;33824;51.600;5.718;2023-03-14T01:49:10;6.53;;;0.98;;
48052;SDS011;33824;51.600;5.718;2023-03-14T01:51:43;8.13;;;1.08;;
48052;SDS011;33824;51.600;5.718;2023-03-14T01:57:13;8.07;;;1.50;;
48052;SDS011;33824;51.600;5.718;2023-03-14T01:59:51;6.07;;;1.08;;
48052;SDS011;33824;51.600;5.718;2023-03-14T02:02:21;8.88;;;1.10;;
48052;SDS011;33824;51.600;5.718;2023-03-14T02:04:51;9.65;;;1.10;;
48052;SDS011;33824;51.600;5.718;2023-03-14T02:07:30;4.82;;;1.02;;
48052;SDS011;33824;51.600;5.718;2023-03-14T02:10:02;8.95;;;2.38;;
48052;SDS011;33824;51.600;5.718;2023-03-14T02:12:28;11.20;;;1.00;;
48052;SDS011;33824;51.600;5.718;2023-03-14T02:14:54;5.72;;;1.17;;
48052;SDS011;33824;51.600;5.718;2023-03-14T02:17:20;6.03;;;0.93;;
48052;SDS011;33824;51.600;5.718;2023-03-14T02:22:27;6.03;;;1.02;;
48052;SDS011;33824;51.600;5.718;2023-03-14T02:25:03;9.30;;;1.38;;
48052;SDS011;33824;51.600;5.718;2023-03-14T02:27:34;7.05;;;0.88;;
48052;SDS011;33824;51.600;5.718;2023-03-14T02:30:17;7.72;;;0.85;;
48052;SDS011;33824;51.600;5.718;2023-03-14T02:32:51;8.43;;;1.42;;
48052;SDS011;33824;51.600;5.718;2023-03-14T02:35:22;7.00;;;1.27;;
48052;SDS011;33824;51.600;5.718;2023-03-14T02:37:53;5.95;;;1.27;;
48052;SDS011;33824;51.600;5.718;2023-03-14T02:40:23;8.65;;;1.15;;
48052;SDS011;33824;51.600;5.718;2023-03-14T02:42:48;4.60;;;1.20;;
48052;SDS011;33824;51.600;5.718;2023-03-14T02:47:41;7.30;;;1.48;;
48052;SDS011;33824;51.600;5.718;2023-03-14T02:50:12;10.98;;;1.00;;
48052;SDS011;33824;51.600;5.718;2023-03-14T02:52:40;8.38;;;1.15;;
48052;SDS011;33824;51.600;5.718;2023-03-14T02:55:06;8.73;;;1.30;;
48052;SDS011;33824;51.600;5.718;2023-03-14T02:57:32;10.35;;;1.38;;
48052;SDS011;33824;51.600;5.718;2023-03-14T02:59:58;8.77;;;1.30;;
48052;SDS011;33824;51.600;5.718;2023-03-14T03:02:25;6.43;;;1.60;;
48052;SDS011;33824;51.600;5.718;2023-03-14T03:04:51;7.43;;;1.05;;
48052;SDS011;33824;51.600;5.718;2023-03-14T03:07:16;6.45;;;1.13;;
48052;SDS011;33824;51.600;5.718;2023-03-14T03:09:42;12.35;;;1.70;;
48052;SDS011;33824;51.600;5.718;2023-03-14T03:12:07;7.43;;;1.02;;
48052;SDS011;33824;51.600;5.718;2023-03-14T03:14:33;5.95;;;1.25;;
48052;SDS011;33824;51.600;5.718;2023-03-14T03:16:59;7.57;;;1.30;;
48052;SDS011;33824;51.600;5.718;2023-03-14T03:19:24;7.13;;;1.55;;
48052;SDS011;33824;51.600;5.718;2023-03-14T03:21:50;10.23;;;2.55;;
48052;SDS011;33824;51.600;5.718;2023-03-14T03:24:16;4.72;;;0.80;;
48052;SDS011;33824;51.600;5.718;2023-03-14T03:26:41;11.10;;;1.88;;
48052;SDS011;33824;51.600;5.718;2023-03-14T03:29:07;10.82;;;1.15;;
48052;SDS011;33824;51.600;5.718;2023-03-14T03:31:32;11.20;;;1.60;;
48052;SDS011;33824;51.600;5.718;2023-03-14T03:33:58;9.32;;;1.40;;
48052;SDS011;33824;51.600;5.718;2023-03-14T03:36:24;9.75;;;1.55;;
48052;SDS011;33824;51.600;5.718;2023-03-14T03:38:50;11.70;;;1.55;;
48052;SDS011;33824;51.600;5.718;2023-03-14T03:41:16;10.52;;;2.17;;
48052;SDS011;33824;51.600;5.718;2023-03-14T03:43:42;8.88;;;1.48;;
48052;SDS011;33824;51.600;5.718;2023-03-14T03:46:07;8.18;;;1.50;;
48052;SDS011;33824;51.600;5.718;2023-03-14T03:48:34;8.05;;;1.27;;
48052;SDS011;33824;51.600;5.718;2023-03-14T03:51:00;8.90;;;1.75;;
48052;SDS011;33824;51.600;5.718;2023-03-14T03:53:26;13.45;;;2.58;;
48052;SDS011;33824;51.600;5.718;2023-03-14T03:55:51;7.22;;;1.25;;
48052;SDS011;33824;51.600;5.718;2023-03-14T03:58:17;7.82;;;1.40;;
48052;SDS011;33824;51.600;5.718;2023-03-14T04:00:42;8.82;;;2.13;;
48052;SDS011;33824;51.600;5.718;2023-03-14T04:03:08;12.30;;;1.30;;
48052;SDS011;33824;51.600;5.718;2023-03-14T04:05:34;9.30;;;1.52;;
48052;SDS011;33824;51.600;5.718;2023-03-14T04:08:00;8.20;;;1.40;;
48052;SDS011;33824;51.600;5.718;2023-03-14T04:10:26;11.43;;;1.23;;
48052;SDS011;33824;51.600;5.718;2023-03-14T04:12:51;8.45;;;1.65;;
48052;SDS011;33824;51.600;5.718;2023-03-14T04:15:17;10.25;;;1.83;;
48052;SDS011;33824;51.600;5.718;2023-03-14T04:17:43;5.25;;;0.95;;
48052;SDS011;33824;51.600;5.718;2023-03-14T04:20:09;8.77;;;1.85;;
48052;SDS011;33824;51.600;5.718;2023-03-14T04:22:36;15.32;;;1.50;;
48052;SDS011;33824;51.600;5.718;2023-03-14T04:25:02;6.53;;;1.10;;
48052;SDS011;33824;51.600;5.718;2023-03-14T04:27:28;5.57;;;0.95;;
48052;SDS011;33824;51.600;5.718;2023-03-14T04:29:54;6.97;;;1.40;;
48052;SDS011;33824;51.600;5.718;2023-03-14T04:32:20;6.78;;;1.70;;
48052;SDS011;33824;51.600;5.718;2023-03-14T04:34:45;4.07;;;1.00;;
48052;SDS011;33824;51.600;5.718;2023-03-14T04:37:11;4.05;;;0.98;;
48052;SDS011;33824;51.600;5.718;2023-03-14T04:39:36;8.00;;;1.00;;
48052;SDS011;33824;51.600;5.718;2023-03-14T04:42:02;7.95;;;0.98;;
48052;SDS011;33824;51.600;5.718;2023-03-14T04:44:27;4.32;;;1.13;;
48052;SDS011;33824;51.600;5.718;2023-03-14T04:46:53;5.15;;;0.98;;
48052;SDS011;33824;51.600;5.718;2023-03-14T04:49:19;2.95;;;0.85;;
48052;SDS011;33824;51.600;5.718;2023-03-14T04:51:44;5.30;;;1.20;;
48052;SDS011;33824;51.600;5.718;2023-03-14T04:54:15;4.82;;;1.40;;
48052;SDS011;33824;51.600;5.718;2023-03-14T04:56:42;2.65;;;0.88;;
48052;SDS011;33824;51.600;5.718;2023-03-14T04:59:07;5.63;;;0.63;;
48052;SDS011;33824;51.600;5.718;2023-03-14T05:01:33;1.60;;;0.80;;
48052;SDS011;33824;51.600;5.718;2023-03-14T05:03:59;6.28;;;1.45;;
48052;SDS011;33824;51.600;5.718;2023-03-14T05:06:25;5.63;;;0.77;;
48052;SDS011;33824;51.600;5.718;2023-03-14T05:08:50;3.17;;;1.17;;
48052;SDS011;33824;51.600;5.718;2023-03-14T05:11:16;2.30;;;0.70;;
48052;SDS011;33824;51.600;5.718;2023-03-14T05:13:41;2.53;;;0.65;;
48052;SDS011;33824;51.600;5.718;2023-03-14T05:16:08;3.08;;;1.00;;
48052;SDS011;33824;51.600;5.718;2023-03-14T05:18:35;2.70;;;0.70;;
48052;SDS011;33824;51.600;5.718;2023-03-14T05:21:01;1.25;;;0.70;;
48052;SDS011;33824;51.600;5.718;2023-03-14T05:23:27;3.03;;;1.08;;
48052;SDS011;33824;51.600;5.718;2023-03-14T05:25:53;2.08;;;0.70;;
48052;SDS011;33824;51.600;5.718;2023-03-14T05:28:20;4.10;;;1.17;;
48052;SDS011;33824;51.600;5.718;2023-03-14T05:30:46;4.78;;;1.40;;
48052;SDS011;33824;51.600;5.718;2023-03-14T05:33:12;6.25;;;1.50;;
48052;SDS011;33824;51.600;5.718;2023-03-14T05:35:37;4.18;;;1.40;;
48052;SDS011;33824;51.600;5.718;2023-03-14T05:38:03;10.35;;;1.73;;
48052;SDS011;33824;51.600;5.718;2023-03-14T05:40:28;5.10;;;1.33;;
48052;SDS011;33824;51.600;5.718;2023-03-14T05:42:54;5.70;;;2.05;;
48052;SDS011;33824;51.600;5.718;2023-03-14T05:45:19;3.65;;;1.30;;
48052;SDS011;33824;51.600;5.718;2023-03-14T05:47:45;6.80;;;1.52;;
48052;SDS011;33824;51.600;5.718;2023-03-14T05:50:11;3.30;;;1.17;;
48052;SDS011;33824;51.600;5.718;2023-03-14T05:52:36;6.95;;;1.65;;
48052;SDS011;33824;51.600;5.718;2023-03-14T05:55:02;6.68;;;1.45;;
48052;SDS011;33824;51.600;5.718;2023-03-14T05:57:28;3.60;;;1.02;;
48052;SDS011;33824;51.600;5.718;2023-03-14T05:59:53;4.60;;;1.50;;
48052;SDS011;33824;51.600;5.718;2023-03-14T06:02:19;3.67;;;1.17;;
48052;SDS011;33824;51.600;5.718;2023-03-14T06:04:45;5.40;;;1.20;;
48052;SDS011;33824;51.600;5.718;2023-03-14T06:07:10;5.20;;;1.63;;
48052;SDS011;33824;51.600;5.718;2023-03-14T06:09:36;4.45;;;1.40;;
48052;SDS011;33824;51.600;5.718;2023-03-14T06:12:02;6.22;;;1.45;;
48052;SDS011;33824;51.600;5.718;2023-03-14T06:14:29;4.35;;;1.40;;
48052;SDS011;33824;51.600;5.718;2023-03-14T06:16:54;6.88;;;1.38;;
48052;SDS011;33824;51.600;5.718;2023-03-14T06:19:20;4.97;;;1.30;;
48052;SDS011;33824;51.600;5.718;2023-03-14T06:21:46;3.88;;;1.02;;
48052;SDS011;33824;51.600;5.718;2023-03-14T06:24:12;4.10;;;1.20;;
48052;SDS011;33824;51.600;5.718;2023-03-14T06:26:37;4.03;;;1.20;;
48052;SDS011;33824;51.600;5.718;2023-03-14T06:29:06;2.25;;;1.08;;
48052;SDS011;33824;51.600;5.718;2023-03-14T06:31:32;8.25;;;1.50;;
48052;SDS011;33824;51.600;5.718;2023-03-14T06:33:58;4.53;;;1.42;;
48052;SDS011;33824;51.600;5.718;2023-03-14T06:36:24;4.55;;;1.33;;
48052;SDS011;33824;51.600;5.718;2023-03-14T06:38:50;4.30;;;1.40;;
48052;SDS011;33824;51.600;5.718;2023-03-14T06:41:15;4.50;;;1.42;;
48052;SDS011;33824;51.600;5.718;2023-03-14T06:43:41;4.07;;;1.20;;
48052;SDS011;33824;51.600;5.718;2023-03-14T06:46:07;2.58;;;1.10;;
48052;SDS011;33824;51.600;5.718;2023-03-14T06:48:33;3.10;;;1.38;;
48052;SDS011;33824;51.600;5.718;2023-03-14T06:50:58;1.75;;;1.10;;
48052;SDS011;33824;51.600;5.718;2023-03-14T06:53:24;5.20;;;2.03;;
48052;SDS011;33824;51.600;5.718;2023-03-14T06:55:49;2.38;;;1.45;;
48052;SDS011;33824;51.600;5.718;2023-03-14T06:58:15;4.32;;;1.20;;
48052;SDS011;33824;51.600;5.718;2023-03-14T07:00:41;3.58;;;1.13;;
48052;SDS011;33824;51.600;5.718;2023-03-14T07:03:07;3.80;;;1.30;;
48052;SDS011;33824;51.600;5.718;2023-03-14T07:05:32;3.63;;;1.13;;
48052;SDS011;33824;51.600;5.718;2023-03-14T07:07:58;4.05;;;1.85;;
48052;SDS011;33824;51.600;5.718;2023-03-14T07:10:24;3.65;;;1.77;;
48052;SDS011;33824;51.600;5.718;2023-03-14T07:12:49;5.22;;;1.58;;
48052;SDS011;33824;51.600;5.718;2023-03-14T07:15:15;5.70;;;1.45;;
48052;SDS011;33824;51.600;5.718;2023-03-14T07:17:40;5.35;;;1.30;;
48052;SDS011;33824;51.600;5.718;2023-03-14T07:20:06;5.88;;;1.70;;
48052;SDS011;33824;51.600;5.718;2023-03-14T07:22:34;4.68;;;1.40;;
48052;SDS011;33824;51.600;5.718;2023-03-14T07:24:59;3.78;;;1.20;;
48052;SDS011;33824;51.600;5.718;2023-03-14T07:27:25;5.57;;;1.50;;
48052;SDS011;33824;51.600;5.718;2023-03-14T07:29:50;3.22;;;1.20;;
48052;SDS011;33824;51.600;5.718;2023-03-14T07:32:16;3.95;;;1.20;;
48052;SDS011;33824;51.600;5.718;2023-03-14T07:34:41;6.75;;;1.63;;
48052;SDS011;33824;51.600;5.718;2023-03-14T07:37:07;4.32;;;1.55;;
48052;SDS011;33824;51.600;5.718;2023-03-14T07:39:33;3.10;;;1.42;;
48052;SDS011;33824;51.600;5.718;2023-03-14T07:41:59;3.63;;;1.05;;
48052;SDS011;33824;51.600;5.718;2023-03-14T07:44:25;3.67;;;0.80;;
48052;SDS011;33824;51.600;5.718;2023-03-14T07:46:51;2.60;;;0.80;;
48052;SDS011;33824;51.600;5.718;2023-03-14T07:49:16;0.82;;;0.45;;
48052;SDS011;33824;51.600;5.718;2023-03-14T07:51:42;1.60;;;0.40;;
48052;SDS011;33824;51.600;5.718;2023-03-14T07:54:09;2.10;;;0.88;;
48052;SDS011;33824;51.600;5.718;2023-03-14T07:56:35;0.63;;;0.40;;
48052;SDS011;33824;51.600;5.718;2023-03-14T07:59:00;1.08;;;0.52;;
48052;SDS011;33824;51.600;5.718;2023-03-14T08:01:26;1.65;;;0.35;;
48052;SDS011;33824;51.600;5.718;2023-03-14T08:03:52;1.75;;;0.40;;
48052;SDS011;33824;51.600;5.718;2023-03-14T08:06:18;2.47;;;0.30;;
48052;SDS011;33824;51.600;5.718;2023-03-14T08:08:43;4.05;;;0.75;;
48052;SDS011;33824;51.600;5.718;2023-03-14T08:11:09;3.38;;;0.38;;
48052;SDS011;33824;51.600;5.718;2023-03-14T08:13:35;2.00;;;0.47;;
48052;SDS011;33824;51.600;5.718;2023-03-14T08:16:05;2.85;;;0.50;;
48052;SDS011;33824;51.600;5.718;2023-03-14T08:18:31;0.75;;;0.60;;
48052;SDS011;33824;51.600;5.718;2023-03-14T08:20:56;1.38;;;0.60;;
48052;SDS011;33824;51.600;5.718;2023-03-14T08:23:23;4.15;;;0.80;;
48052;SDS011;33824;51.600;5.718;2023-03-14T08:25:49;1.95;;;0.82;;
48052;SDS011;33824;51.600;5.718;2023-03-14T08:28:15;2.50;;;0.70;;
48052;SDS011;33824;51.600;5.718;2023-03-14T08:30:41;2.78;;;0.70;;
48052;SDS011;33824;51.600;5.718;2023-03-14T08:33:07;3.45;;;0.90;;
48052;SDS011;33824;51.600;5.718;2023-03-14T08:35:32;1.95;;;0.70;;
48052;SDS011;33824;51.600;5.718;2023-03-14T08:37:58;3.30;;;0.70;;
48052;SDS011;33824;51.600;5.718;2023-03-14T08:40:24;1.23;;;0.50;;
48052;SDS011;33824;51.600;5.718;2023-03-14T08:42:49;2.33;;;0.90;;
48052;SDS011;33824;51.600;5.718;2023-03-14T08:45:15;1.70;;;0.70;;
48052;SDS011;33824;51.600;5.718;2023-03-14T08:47:44;2.20;;;0.90;;
48052;SDS011;33824;51.600;5.718;2023-03-14T08:50:10;2.92;;;1.05;;
48052;SDS011;33824;51.600;5.718;2023-03-14T08:52:36;5.55;;;1.33;;
48052;SDS011;33824;51.600;5.718;2023-03-14T08:55:07;1.88;;;0.90;;
48052;SDS011;33824;51.600;5.718;2023-03-14T08:57:34;1.85;;;0.90;;
48052;SDS011;33824;51.600;5.718;2023-03-14T09:00:00;7.38;;;1.00;;
48052;SDS011;33824;51.600;5.718;2023-03-14T09:02:25;7.65;;;1.20;;
48052;SDS011;33824;51.600;5.718;2023-03-14T09:04:52;4.78;;;0.75;;
48052;SDS011;33824;51.600;5.718;2023-03-14T09:07:18;6.20;;;0.80;;
48052;SDS011;33824;51.600;5.718;2023-03-14T09:09:44;9.07;;;0.75;;
48052;SDS011;33824;51.600;5.718;2023-03-14T09:12:10;0.95;;;0.40;;
48052;SDS011;33824;51.600;5.718;2023-03-14T09:14:35;2.80;;;0.85;;
48052;SDS011;33824;51.600;5.718;2023-03-14T09:17:01;2.45;;;0.40;;
48052;SDS011;33824;51.600;5.718;2023-03-14T09:19:28;5.60;;;0.77;;
48052;SDS011;33824;51.600;5.718;2023-03-14T09:21:53;2.50;;;0.70;;
48052;SDS011;33824;51.600;5.718;2023-03-14T09:24:20;4.07;;;0.77;;
48052;SDS011;33824;51.600;5.718;2023-03-14T09:26:45;5.85;;;1.00;;
48052;SDS011;33824;51.600;5.718;2023-03-14T09:29:11;3.72;;;1.33;;
48052;SDS011;33824;51.600;5.718;2023-03-14T09:31:37;5.03;;;1.10;;
48052;SDS011;33824;51.600;5.718;2023-03-14T09:34:02;1.40;;;0.40;;
48052;SDS011;33824;51.600;5.718;2023-03-14T09:36:28;2.10;;;0.88;;
48052;SDS011;33824;51.600;5.718;2023-03-14T09:38:55;3.38;;;0.85;;
48052;SDS011;33824;51.600;5.718;2023-03-14T09:41:23;1.42;;;0.40;;
48052;SDS011;33824;51.600;5.718;2023-03-14T09:44:14;2.95;;;1.08;;
48052;SDS011;33824;51.600;5.718;2023-03-14T09:46:43;0.85;;;0.40;;
48052;SDS011;33824;51.600;5.718;2023-03-14T09:49:16;2.63;;;0.70;;
48052;SDS011;33824;51.600;5.718;2023-03-14T09:51:47;0.82;;;0.30;;
48052;SDS011;33824;51.600;5.718;2023-03-14T09:54:18;2.45;;;0.40;;
48052;SDS011;33824;51.600;5.718;2023-03-14T09:56:55;1.10;;;0.40;;
48052;SDS011;33824;51.600;5.718;2023-03-14T09:59:21;3.95;;;0.60;;
48052;SDS011;33824;51.600;5.718;2023-03-14T10:01:46;3.38;;;0.45;;
48052;SDS011;33824;51.600;5.718;2023-03-14T10:04:14;2.63;;;1.15;;
48052;SDS011;33824;51.600;5.718;2023-03-14T10:06:42;3.10;;;0.88;;
48052;SDS011;33824;51.600;5.718;2023-03-14T10:09:14;4.13;;;0.75;;
48052;SDS011;33824;51.600;5.718;2023-03-14T10:11:44;3.65;;;0.60;;
48052;SDS011;33824;51.600;5.718;2023-03-14T10:14:10;3.10;;;0.73;;
48052;SDS011;33824;51.600;5.718;2023-03-14T10:16:45;1.48;;;0.50;;
48052;SDS011;33824;51.600;5.718;2023-03-14T10:19:12;4.40;;;0.88;;
48052;SDS011;33824;51.600;5.718;2023-03-14T10:21:43;1.58;;;0.47;;
48052;SDS011;33824;51.600;5.718;2023-03-14T10:24:20;4.07;;;0.75;;
48052;SDS011;33824;51.600;5.718;2023-03-14T10:26:52;4.25;;;0.80;;
48052;SDS011;33824;51.600;5.718;2023-03-14T10:29:20;9.88;;;1.38;;
48052;SDS011;33824;51.600;5.718;2023-03-14T10:31:50;7.35;;;1.65;;
48052;SDS011;33824;51.600;5.718;2023-03-14T10:34:24;5.03;;;0.82;;
48052;SDS011;33824;51.600;5.718;2023-03-14T10:36:52;5.43;;;1.35;;
48052;SDS011;33824;51.600;5.718;2023-03-14T10:39:26;7.00;;;1.35;;
48052;SDS011;33824;51.600;5.718;2023-03-14T10:42:01;10.88;;;1.65;;
48052;SDS011;33824;51.600;5.718;2023-03-14T10:44:30;3.45;;;0.85;;
48052;SDS011;33824;51.600;5.718;2023-03-14T10:47:01;9.90;;;1.30;;
48052;SDS011;33824;51.600;5.718;2023-03-14T10:49:36;8.35;;;1.20;;
48052;SDS011;33824;51.600;5.718;2023-03-14T10:52:24;9.95;;;1.60;;
48052;SDS011;33824;51.600;5.718;2023-03-14T10:55:00;11.77;;;2.55;;
48052;SDS011;33824;51.600;5.718;2023-03-14T10:57:28;14.35;;;1.83;;
48052;SDS011;33824;51.600;5.718;2023-03-14T10:59:55;12.85;;;1.92;;
48052;SDS011;33824;51.600;5.718;2023-03-14T11:02:30;11.40;;;1.67;;
48052;SDS011;33824;51.600;5.718;2023-03-14T11:05:26;10.70;;;2.17;;
48052;SDS011;33824;51.600;5.718;2023-03-14T11:08:06;12.38;;;1.45;;
48052;SDS011;33824;51.600;5.718;2023-03-14T11:10:43;19.70;;;1.85;;
48052;SDS011;33824;51.600;5.718;2023-03-14T11:21:55;17.77;;;1.92;;
48052;SDS011;33824;51.600;5.718;2023-03-14T11:27:12;16.08;;;2.30;;
48052;SDS011;33824;51.600;5.718;2023-03-14T11:29:58;14.90;;;1.85;;
48052;SDS011;33824;51.600;5.718;2023-03-14T11:32:54;16.80;;;2.80;;
48052;SDS011;33824;51.600;5.718;2023-03-14T11:35:31;11.18;;;1.60;;
48052;SDS011;33824;51.600;5.718;2023-03-14T11:38:18;14.07;;;3.25;;
48052;SDS011;33824;51.600;5.718;2023-03-14T11:40:53;14.52;;;1.80;;
48052;SDS011;33824;51.600;5.718;2023-03-14T11:46:26;23.75;;;4.00;;
48052;SDS011;33824;51.600;5.718;2023-03-14T11:48:58;18.70;;;2.30;;
48052;SDS011;33824;51.600;5.718;2023-03-14T11:51:36;20.10;;;3.25;;
48052;SDS011;33824;51.600;5.718;2023-03-14T11:54:12;19.05;;;2.60;;
48052;SDS011;33824;51.600;5.718;2023-03-14T11:56:55;15.88;;;1.83;;
48052;SDS011;33824;51.600;5.718;2023-03-14T12:00:12;16.98;;;2.30;;
48052;SDS011;33824;51.600;5.718;2023-03-14T12:02:53;15.60;;;2.30;;
48052;SDS011;33824;51.600;5.718;2023-03-14T12:08:22;18.83;;;2.70;;
48052;SDS011;33824;51.600;5.718;2023-03-14T12:10:58;19.70;;;2.95;;
48052;SDS011;33824;51.600;5.718;2023-03-14T12:13:32;24.52;;;2.33;;
48052;SDS011;33824;51.600;5.718;2023-03-14T12:16:04;16.35;;;2.10;;
48052;SDS011;33824;51.600;5.718;2023-03-14T12:18:35;16.10;;;2.77;;
48052;SDS011;33824;51.600;5.718;2023-03-14T12:21:07;17.20;;;2.38;;
48052;SDS011;33824;51.600;5.718;2023-03-14T12:23:43;16.90;;;2.17;;
48052;SDS011;33824;51.600;5.718;2023-03-14T12:26:21;16.65;;;2.25;;
48052;SDS011;33824;51.600;5.718;2023-03-14T12:29:09;16.88;;;2.05;;
48052;SDS011;33824;51.600;5.718;2023-03-14T12:39:13;15.35;;;3.10;;
48052;SDS011;33824;51.600;5.718;2023-03-14T12:50:12;13.73;;;2.55;;
48052;SDS011;33824;51.600;5.718;2023-03-14T12:53:15;15.52;;;2.25;;
48052;SDS011;33824;51.600;5.718;2023-03-14T12:58:31;13.43;;;2.75;;
48052;SDS011;33824;51.600;5.718;2023-03-14T13:01:01;18.67;;;2.67;;
48052;SDS011;33824;51.600;5.718;2023-03-14T13:12:09;10.70;;;2.00;;
48052;SDS011;33824;51.600;5.718;2023-03-14T13:14:40;13.18;;;1.92;;
48052;SDS011;33824;51.600;5.718;2023-03-14T13:17:10;16.13;;;2.10;;
48052;SDS011;33824;51.600;5.718;2023-03-14T13:19:37;14.23;;;1.65;;
48052;SDS011;33824;51.600;5.718;2023-03-14T13:22:05;8.18;;;1.52;;
48052;SDS011;33824;51.600;5.718;2023-03-14T13:24:39;9.68;;;1.38;;
48052;SDS011;33824;51.600;5.718;2023-03-14T13:27:04;12.27;;;1.50;;
48052;SDS011;33824;51.600;5.718;2023-03-14T13:29:43;9.88;;;1.65;;
48052;SDS011;33824;51.600;5.718;2023-03-14T13:32:22;15.35;;;3.03;;
48052;SDS011;33824;51.600;5.718;2023-03-14T13:34:56;13.15;;;2.13;;
48052;SDS011;33824;51.600;5.718;2023-03-14T13:37:23;10.60;;;1.30;;
48052;SDS011;33824;51.600;5.718;2023-03-14T13:39:54;9.70;;;1.48;;
48052;SDS011;33824;51.600;5.718;2023-03-14T13:42:25;8.98;;;1.15;;
48052;SDS011;33824;51.600;5.718;2023-03-14T13:44:56;8.43;;;1.73;;
48052;SDS011;33824;51.600;5.718;2023-03-14T13:47:25;4.20;;;1.13;;
48052;SDS011;33824;51.600;5.718;2023-03-14T13:49:51;6.57;;;1.20;;
48052;SDS011;33824;51.600;5.718;2023-03-14T13:54:57;8.45;;;1.55;;
48052;SDS011;33824;51.600;5.718;2023-03-14T13:57:25;9.50;;;1.48;;
48052;SDS011;33824;51.600;5.718;2023-03-14T14:00:01;9.88;;;1.80;;
48052;SDS011;33824;51.600;5.718;2023-03-14T14:02:32;10.77;;;1.00;;
48052;SDS011;33824;51.600;5.718;2023-03-14T14:05:01;9.05;;;2.55;;
48052;SDS011;33824;51.600;5.718;2023-03-14T14:07:27;13.35;;;1.65;;
48052;SDS011;33824;51.600;5.718;2023-03-14T14:09:53;11.43;;;1.48;;
48052;SDS011;33824;51.600;5.718;2023-03-14T14:12:25;5.57;;;1.20;;
48052;SDS011;33824;51.600;5.718;2023-03-14T14:17:33;7.22;;;1.00;;
48052;SDS011;33824;51.600;5.718;2023-03-14T14:20:02;5.85;;;0.95;;
48052;SDS011;33824;51.600;5.718;2023-03-14T14:22:32;9.50;;;1.25;;
48052;SDS011;33824;51.600;5.718;2023-03-14T14:24:58;9.77;;;1.20;;
48052;SDS011;33824;51.600;5.718;2023-03-14T14:27:38;8.50;;;1.35;;
48052;SDS011;33824;51.600;5.718;2023-03-14T14:32:42;10.52;;;1.27;;
48052;SDS011;33824;51.600;5.718;2023-03-14T14:35:10;5.35;;;0.90;;
48052;SDS011;33824;51.600;5.718;2023-03-14T14:37:46;7.63;;;1.10;;
48052;SDS011;33824;51.600;5.718;2023-03-14T14:40:16;11.77;;;1.33;;
48052;SDS011;33824;51.600;5.718;2023-03-14T14:42:45;12.48;;;1.42;;
48052;SDS011;33824;51.600;5.718;2023-03-14T14:45:24;6.88;;;0.80;;
48052;SDS011;33824;51.600;5.718;2023-03-14T14:48:03;3.75;;;1.25;;
48052;SDS011;33824;51.600;5.718;2023-03-14T14:50:33;3.72;;;1.25;;
48052;SDS011;33824;51.600;5.718;2023-03-14T14:53:03;8.93;;;0.85;;
48052;SDS011;33824;51.600;5.718;2023-03-14T14:55:44;9.25;;;1.25;;
48052;SDS011;33824;51.600;5.718;2023-03-14T14:58:33;7.45;;;1.15;;
48052;SDS011;33824;51.600;5.718;2023-03-14T15:03:50;9.70;;;1.50;;
48052;SDS011;33824;51.600;5.718;2023-03-14T15:06:18;11.77;;;1.40;;
48052;SDS011;33824;51.600;5.718;2023-03-14T15:08:45;8.02;;;1.15;;
48052;SDS011;33824;51.600;5.718;2023-03-14T15:11:19;4.40;;;1.80;;
48052;SDS011;33824;51.600;5.718;2023-03-14T15:13:48;8.65;;;1.15;;
48052;SDS011;33824;51.600;5.718;2023-03-14T15:16:15;4.95;;;1.20;;
48052;SDS011;33824;51.600;5.718;2023-03-14T15:18:47;10.23;;;1.15;;
48052;SDS011;33824;51.600;5.718;2023-03-14T15:21:18;4.55;;;0.80;;
48052;SDS011;33824;51.600;5.718;2023-03-14T15:23:43;8.18;;;1.40;;
48052;SDS011;33824;51.600;5.718;2023-03-14T15:26:16;6.47;;;1.05;;
48052;SDS011;33824;51.600;5.718;2023-03-14T15:28:44;10.15;;;2.63;;
48052;SDS011;33824;51.600;5.718;2023-03-14T15:31:11;3.08;;;0.90;;
48052;SDS011;33824;51.600;5.718;2023-03-14T15:33:38;11.65;;;1.45;;
48052;SDS011;33824;51.600;5.718;2023-03-14T15:36:04;6.22;;;0.90;;
48052;SDS011;33824;51.600;5.718;2023-03-14T15:38:31;8.10;;;1.40;;
48052;SDS011;33824;51.600;5.718;2023-03-14T15:40:57;7.13;;;1.10;;
48052;SDS011;33824;51.600;5.718;2023-03-14T15:43:23;6.05;;;1.30;;
48052;SDS011;33824;51.600;5.718;2023-03-14T15:45:48;5.63;;;1.23;;
48052;SDS011;33824;51.600;5.718;2023-03-14T15:48:17;8.30;;;1.38;;
48052;SDS011;33824;51.600;5.718;2023-03-14T15:50:44;6.20;;;1.10;;
48052;SDS011;33824;51.600;5.718;2023-03-14T15:53:10;7.70;;;1.38;;
48052;SDS011;33824;51.600;5.718;2023-03-14T15:55:36;9.50;;;2.15;;
48052;SDS011;33824;51.600;5.718;2023-03-14T15:58:02;5.25;;;1.23;;